Runge, Texas
Current Conditions -  °F | °C
As of 4:55 AM on Friday 28 Nov 2014 (Local Time) from KBEA Reporting Station
Clear Clear  
Wind Chill: 49°   Ceiling: Unl
Heat Index: 49°   Visibility: 10mi
Dew Point: 49°   Wind: 3mph
Humidity: 100%   Direction: 50°NE
Pressure: 30.31"   Gusts: NA
Location:  28.88°N, 97.71°W
Report Text: KBEA 281055Z AUTO 05003KT 10SM CLR 09/09 A3031 RMK AO2 T00930093
Loading
Personal Weather Stations






























Interactive Weather Map New forecast layout! Learn more

10-Day Weather Forecast

Advertisements
Track Severe Weather on mobile